sensor_id;sensor_type;location;lat;lon;timestamp;P1;durP1;ratioP1;P2;durP2;ratioP2
56435;SDS011;42335;44.872;20.658;2023-07-20T00:00:10;18.17;;;3.72;;
56435;SDS011;42335;44.872;20.658;2023-07-20T00:02:38;12.18;;;2.92;;
56435;SDS011;42335;44.872;20.658;2023-07-20T00:05:05;7.30;;;3.13;;
56435;SDS011;42335;44.872;20.658;2023-07-20T00:07:31;9.07;;;3.38;;
56435;SDS011;42335;44.872;20.658;2023-07-20T00:09:57;4.63;;;2.60;;
56435;SDS011;42335;44.872;20.658;2023-07-20T00:12:23;11.75;;;3.65;;
56435;SDS011;42335;44.872;20.658;2023-07-20T00:14:49;6.10;;;2.70;;
56435;SDS011;42335;44.872;20.658;2023-07-20T00:17:18;7.30;;;3.03;;
56435;SDS011;42335;44.872;20.658;2023-07-20T00:19:45;10.85;;;3.10;;
56435;SDS011;42335;44.872;20.658;2023-07-20T00:22:11;6.80;;;3.28;;
56435;SDS011;42335;44.872;20.658;2023-07-20T00:24:38;10.38;;;3.38;;
56435;SDS011;42335;44.872;20.658;2023-07-20T00:27:04;7.75;;;3.53;;
56435;SDS011;42335;44.872;20.658;2023-07-20T00:29:30;7.43;;;3.10;;
56435;SDS011;42335;44.872;20.658;2023-07-20T00:31:56;7.80;;;3.08;;
56435;SDS011;42335;44.872;20.658;2023-07-20T00:34:23;14.55;;;3.92;;
56435;SDS011;42335;44.872;20.658;2023-07-20T00:36:49;8.65;;;3.22;;
56435;SDS011;42335;44.872;20.658;2023-07-20T00:39:15;8.77;;;4.07;;
56435;SDS011;42335;44.872;20.658;2023-07-20T00:41:42;9.90;;;3.58;;
56435;SDS011;42335;44.872;20.658;2023-07-20T00:44:08;7.30;;;3.15;;
56435;SDS011;42335;44.872;20.658;2023-07-20T00:46:34;12.48;;;3.38;;
56435;SDS011;42335;44.872;20.658;2023-07-20T00:49:00;13.63;;;3.75;;
56435;SDS011;42335;44.872;20.658;2023-07-20T00:51:26;11.32;;;3.35;;
56435;SDS011;42335;44.872;20.658;2023-07-20T00:53:52;13.27;;;5.03;;
56435;SDS011;42335;44.872;20.658;2023-07-20T00:56:19;11.07;;;3.85;;
56435;SDS011;42335;44.872;20.658;2023-07-20T00:58:45;7.75;;;3.88;;
56435;SDS011;42335;44.872;20.658;2023-07-20T01:01:11;15.63;;;5.70;;
56435;SDS011;42335;44.872;20.658;2023-07-20T01:03:37;13.52;;;4.20;;
56435;SDS011;42335;44.872;20.658;2023-07-20T01:08:33;12.63;;;4.65;;
56435;SDS011;42335;44.872;20.658;2023-07-20T01:11:08;12.38;;;4.88;;
56435;SDS011;42335;44.872;20.658;2023-07-20T01:13:36;13.75;;;4.78;;
56435;SDS011;42335;44.872;20.658;2023-07-20T01:16:02;10.05;;;4.32;;
56435;SDS011;42335;44.872;20.658;2023-07-20T01:18:29;12.00;;;4.28;;
56435;SDS011;42335;44.872;20.658;2023-07-20T01:20:58;10.30;;;4.05;;
56435;SDS011;42335;44.872;20.658;2023-07-20T01:26:11;14.52;;;3.95;;
56435;SDS011;42335;44.872;20.658;2023-07-20T01:31:33;10.65;;;4.10;;
56435;SDS011;42335;44.872;20.658;2023-07-20T01:34:00;8.15;;;4.20;;
56435;SDS011;42335;44.872;20.658;2023-07-20T01:36:29;11.18;;;4.68;;
56435;SDS011;42335;44.872;20.658;2023-07-20T01:38:58;13.07;;;4.40;;
56435;SDS011;42335;44.872;20.658;2023-07-20T01:41:24;17.02;;;4.72;;
56435;SDS011;42335;44.872;20.658;2023-07-20T01:43:50;8.23;;;4.32;;
56435;SDS011;42335;44.872;20.658;2023-07-20T01:46:15;9.77;;;5.07;;
56435;SDS011;42335;44.872;20.658;2023-07-20T01:48:41;11.43;;;4.53;;
56435;SDS011;42335;44.872;20.658;2023-07-20T01:51:07;17.35;;;4.78;;
56435;SDS011;42335;44.872;20.658;2023-07-20T01:53:33;10.98;;;4.50;;
56435;SDS011;42335;44.872;20.658;2023-07-20T01:55:59;10.95;;;4.90;;
56435;SDS011;42335;44.872;20.658;2023-07-20T01:58:25;7.88;;;4.90;;
56435;SDS011;42335;44.872;20.658;2023-07-20T02:00:50;12.23;;;5.15;;
56435;SDS011;42335;44.872;20.658;2023-07-20T02:03:16;10.30;;;5.38;;
56435;SDS011;42335;44.872;20.658;2023-07-20T02:05:42;10.13;;;5.00;;
56435;SDS011;42335;44.872;20.658;2023-07-20T02:08:08;13.55;;;4.72;;
56435;SDS011;42335;44.872;20.658;2023-07-20T02:10:34;9.68;;;4.63;;
56435;SDS011;42335;44.872;20.658;2023-07-20T02:13:00;14.20;;;5.00;;
56435;SDS011;42335;44.872;20.658;2023-07-20T02:15:26;9.02;;;4.63;;
56435;SDS011;42335;44.872;20.658;2023-07-20T02:17:52;11.63;;;4.85;;
56435;SDS011;42335;44.872;20.658;2023-07-20T02:20:18;9.52;;;4.25;;
56435;SDS011;42335;44.872;20.658;2023-07-20T02:22:44;7.43;;;4.75;;
56435;SDS011;42335;44.872;20.658;2023-07-20T02:25:10;13.68;;;5.75;;
56435;SDS011;42335;44.872;20.658;2023-07-20T02:27:36;15.25;;;6.25;;
56435;SDS011;42335;44.872;20.658;2023-07-20T02:30:03;13.93;;;5.95;;
56435;SDS011;42335;44.872;20.658;2023-07-20T02:32:30;17.17;;;7.20;;
56435;SDS011;42335;44.872;20.658;2023-07-20T02:34:56;19.25;;;6.85;;
56435;SDS011;42335;44.872;20.658;2023-07-20T02:37:22;13.65;;;5.68;;
56435;SDS011;42335;44.872;20.658;2023-07-20T02:39:48;14.52;;;6.00;;
56435;SDS011;42335;44.872;20.658;2023-07-20T02:42:14;14.85;;;6.22;;
56435;SDS011;42335;44.872;20.658;2023-07-20T02:44:39;14.23;;;6.05;;
56435;SDS011;42335;44.872;20.658;2023-07-20T02:47:05;18.58;;;5.95;;
56435;SDS011;42335;44.872;20.658;2023-07-20T02:49:31;11.65;;;5.28;;
56435;SDS011;42335;44.872;20.658;2023-07-20T02:51:57;16.75;;;5.60;;
56435;SDS011;42335;44.872;20.658;2023-07-20T02:54:22;11.32;;;5.00;;
56435;SDS011;42335;44.872;20.658;2023-07-20T02:56:48;11.65;;;5.18;;
56435;SDS011;42335;44.872;20.658;2023-07-20T02:59:14;12.48;;;5.55;;
56435;SDS011;42335;44.872;20.658;2023-07-20T03:01:39;17.00;;;5.60;;
56435;SDS011;42335;44.872;20.658;2023-07-20T03:04:07;14.43;;;5.50;;
56435;SDS011;42335;44.872;20.658;2023-07-20T03:06:35;12.23;;;5.13;;
56435;SDS011;42335;44.872;20.658;2023-07-20T03:09:01;15.55;;;6.53;;
56435;SDS011;42335;44.872;20.658;2023-07-20T03:11:28;21.85;;;5.93;;
56435;SDS011;42335;44.872;20.658;2023-07-20T03:13:54;13.25;;;5.50;;
56435;SDS011;42335;44.872;20.658;2023-07-20T03:16:20;15.68;;;6.55;;
56435;SDS011;42335;44.872;20.658;2023-07-20T03:18:46;13.25;;;6.13;;
56435;SDS011;42335;44.872;20.658;2023-07-20T03:21:11;16.52;;;6.45;;
56435;SDS011;42335;44.872;20.658;2023-07-20T03:23:38;11.05;;;6.57;;
56435;SDS011;42335;44.872;20.658;2023-07-20T03:26:04;19.27;;;6.45;;
56435;SDS011;42335;44.872;20.658;2023-07-20T03:28:33;11.73;;;5.50;;
56435;SDS011;42335;44.872;20.658;2023-07-20T03:30:59;15.13;;;6.10;;
56435;SDS011;42335;44.872;20.658;2023-07-20T03:33:26;9.18;;;5.72;;
56435;SDS011;42335;44.872;20.658;2023-07-20T03:35:52;14.85;;;6.43;;
56435;SDS011;42335;44.872;20.658;2023-07-20T03:38:19;10.25;;;4.68;;
56435;SDS011;42335;44.872;20.658;2023-07-20T03:40:51;13.43;;;5.40;;
56435;SDS011;42335;44.872;20.658;2023-07-20T03:43:18;15.93;;;6.35;;
56435;SDS011;42335;44.872;20.658;2023-07-20T03:45:44;19.55;;;6.10;;
56435;SDS011;42335;44.872;20.658;2023-07-20T03:48:16;16.63;;;6.32;;
56435;SDS011;42335;44.872;20.658;2023-07-20T03:50:43;18.92;;;6.30;;
56435;SDS011;42335;44.872;20.658;2023-07-20T03:53:10;17.08;;;6.63;;
56435;SDS011;42335;44.872;20.658;2023-07-20T03:55:37;18.60;;;6.55;;
56435;SDS011;42335;44.872;20.658;2023-07-20T03:58:02;12.27;;;6.15;;
56435;SDS011;42335;44.872;20.658;2023-07-20T04:00:28;12.52;;;5.78;;
56435;SDS011;42335;44.872;20.658;2023-07-20T04:02:54;14.00;;;5.80;;
56435;SDS011;42335;44.872;20.658;2023-07-20T04:05:19;12.85;;;5.78;;
56435;SDS011;42335;44.872;20.658;2023-07-20T04:07:45;12.13;;;5.47;;
56435;SDS011;42335;44.872;20.658;2023-07-20T04:10:11;11.18;;;5.65;;
56435;SDS011;42335;44.872;20.658;2023-07-20T04:12:37;9.85;;;5.45;;
56435;SDS011;42335;44.872;20.658;2023-07-20T04:15:03;16.67;;;5.35;;
56435;SDS011;42335;44.872;20.658;2023-07-20T04:17:29;12.00;;;7.13;;
56435;SDS011;42335;44.872;20.658;2023-07-20T04:19:55;15.25;;;5.70;;
56435;SDS011;42335;44.872;20.658;2023-07-20T04:22:20;19.13;;;6.05;;
56435;SDS011;42335;44.872;20.658;2023-07-20T04:24:46;13.93;;;6.53;;
56435;SDS011;42335;44.872;20.658;2023-07-20T04:27:12;18.08;;;7.22;;
56435;SDS011;42335;44.872;20.658;2023-07-20T04:29:38;18.98;;;6.07;;
56435;SDS011;42335;44.872;20.658;2023-07-20T04:32:04;16.85;;;5.30;;
56435;SDS011;42335;44.872;20.658;2023-07-20T04:34:30;17.02;;;5.32;;
56435;SDS011;42335;44.872;20.658;2023-07-20T04:36:56;11.18;;;4.22;;
56435;SDS011;42335;44.872;20.658;2023-07-20T04:39:22;13.20;;;4.88;;
56435;SDS011;42335;44.872;20.658;2023-07-20T04:41:47;14.73;;;4.82;;
56435;SDS011;42335;44.872;20.658;2023-07-20T04:44:13;15.27;;;6.55;;
56435;SDS011;42335;44.872;20.658;2023-07-20T04:46:39;11.15;;;4.85;;
56435;SDS011;42335;44.872;20.658;2023-07-20T04:49:05;13.20;;;4.47;;
56435;SDS011;42335;44.872;20.658;2023-07-20T04:51:31;19.35;;;6.38;;
56435;SDS011;42335;44.872;20.658;2023-07-20T04:53:57;16.23;;;4.88;;
56435;SDS011;42335;44.872;20.658;2023-07-20T04:56:23;12.93;;;4.90;;
56435;SDS011;42335;44.872;20.658;2023-07-20T04:58:49;11.27;;;4.75;;
56435;SDS011;42335;44.872;20.658;2023-07-20T05:01:15;12.32;;;5.10;;
56435;SDS011;42335;44.872;20.658;2023-07-20T05:03:41;18.05;;;5.53;;
56435;SDS011;42335;44.872;20.658;2023-07-20T05:06:07;10.50;;;4.93;;
56435;SDS011;42335;44.872;20.658;2023-07-20T05:08:32;12.45;;;5.57;;
56435;SDS011;42335;44.872;20.658;2023-07-20T05:10:59;12.18;;;4.43;;
56435;SDS011;42335;44.872;20.658;2023-07-20T05:13:25;12.32;;;5.00;;
56435;SDS011;42335;44.872;20.658;2023-07-20T05:15:51;9.30;;;5.47;;
56435;SDS011;42335;44.872;20.658;2023-07-20T05:18:17;13.98;;;5.63;;
56435;SDS011;42335;44.872;20.658;2023-07-20T05:20:47;14.45;;;5.32;;
56435;SDS011;42335;44.872;20.658;2023-07-20T05:23:13;8.57;;;5.10;;
56435;SDS011;42335;44.872;20.658;2023-07-20T05:25:39;25.10;;;6.05;;
56435;SDS011;42335;44.872;20.658;2023-07-20T05:28:05;16.70;;;6.25;;
56435;SDS011;42335;44.872;20.658;2023-07-20T05:30:31;21.30;;;5.55;;
56435;SDS011;42335;44.872;20.658;2023-07-20T05:32:57;16.20;;;5.85;;
56435;SDS011;42335;44.872;20.658;2023-07-20T05:35:23;19.88;;;7.20;;
56435;SDS011;42335;44.872;20.658;2023-07-20T05:37:49;22.02;;;6.75;;
56435;SDS011;42335;44.872;20.658;2023-07-20T05:40:15;16.27;;;7.25;;
56435;SDS011;42335;44.872;20.658;2023-07-20T05:42:44;14.82;;;7.00;;
56435;SDS011;42335;44.872;20.658;2023-07-20T05:45:11;14.95;;;6.18;;
56435;SDS011;42335;44.872;20.658;2023-07-20T05:47:37;17.33;;;6.75;;
56435;SDS011;42335;44.872;20.658;2023-07-20T05:50:03;21.23;;;6.65;;
56435;SDS011;42335;44.872;20.658;2023-07-20T05:52:29;14.30;;;6.30;;
56435;SDS011;42335;44.872;20.658;2023-07-20T05:54:55;16.17;;;7.47;;
56435;SDS011;42335;44.872;20.658;2023-07-20T05:57:21;19.42;;;7.90;;
56435;SDS011;42335;44.872;20.658;2023-07-20T05:59:47;27.20;;;8.52;;
56435;SDS011;42335;44.872;20.658;2023-07-20T06:02:13;23.00;;;7.60;;
56435;SDS011;42335;44.872;20.658;2023-07-20T06:04:39;19.65;;;7.30;;
56435;SDS011;42335;44.872;20.658;2023-07-20T06:07:05;23.00;;;7.90;;
56435;SDS011;42335;44.872;20.658;2023-07-20T06:09:33;21.77;;;8.07;;
56435;SDS011;42335;44.872;20.658;2023-07-20T06:11:59;17.75;;;8.43;;
56435;SDS011;42335;44.872;20.658;2023-07-20T06:14:25;15.82;;;8.32;;
56435;SDS011;42335;44.872;20.658;2023-07-20T06:16:51;18.15;;;8.40;;
56435;SDS011;42335;44.872;20.658;2023-07-20T06:19:17;16.73;;;7.82;;
56435;SDS011;42335;44.872;20.658;2023-07-20T06:21:43;20.45;;;9.43;;
56435;SDS011;42335;44.872;20.658;2023-07-20T06:24:09;15.98;;;8.90;;
56435;SDS011;42335;44.872;20.658;2023-07-20T06:26:35;11.70;;;7.30;;
56435;SDS011;42335;44.872;20.658;2023-07-20T06:29:04;20.25;;;8.52;;
56435;SDS011;42335;44.872;20.658;2023-07-20T06:31:37;20.52;;;7.20;;
56435;SDS011;42335;44.872;20.658;2023-07-20T06:34:03;20.38;;;8.93;;
56435;SDS011;42335;44.872;20.658;2023-07-20T06:36:28;21.90;;;8.00;;
56435;SDS011;42335;44.872;20.658;2023-07-20T06:38:55;21.25;;;9.40;;
56435;SDS011;42335;44.872;20.658;2023-07-20T06:41:20;19.40;;;7.97;;
56435;SDS011;42335;44.872;20.658;2023-07-20T06:43:47;19.95;;;8.52;;
56435;SDS011;42335;44.872;20.658;2023-07-20T06:46:13;13.95;;;7.63;;
56435;SDS011;42335;44.872;20.658;2023-07-20T06:48:39;13.65;;;7.68;;
56435;SDS011;42335;44.872;20.658;2023-07-20T06:51:05;22.17;;;6.95;;
56435;SDS011;42335;44.872;20.658;2023-07-20T06:53:31;15.07;;;7.28;;
56435;SDS011;42335;44.872;20.658;2023-07-20T06:55:57;18.20;;;8.70;;
56435;SDS011;42335;44.872;20.658;2023-07-20T06:58:23;13.75;;;8.40;;
56435;SDS011;42335;44.872;20.658;2023-07-20T07:00:49;11.75;;;8.52;;
56435;SDS011;42335;44.872;20.658;2023-07-20T07:03:15;22.35;;;8.57;;
56435;SDS011;42335;44.872;20.658;2023-07-20T07:05:41;17.63;;;7.65;;
56435;SDS011;42335;44.872;20.658;2023-07-20T07:08:07;17.85;;;7.35;;
56435;SDS011;42335;44.872;20.658;2023-07-20T07:10:35;16.10;;;7.60;;
56435;SDS011;42335;44.872;20.658;2023-07-20T07:13:01;18.65;;;7.28;;
56435;SDS011;42335;44.872;20.658;2023-07-20T07:15:27;22.40;;;7.95;;
56435;SDS011;42335;44.872;20.658;2023-07-20T07:17:53;17.00;;;6.47;;
56435;SDS011;42335;44.872;20.658;2023-07-20T07:20:19;14.00;;;6.03;;
56435;SDS011;42335;44.872;20.658;2023-07-20T07:22:45;14.98;;;5.82;;
56435;SDS011;42335;44.872;20.658;2023-07-20T07:25:11;19.30;;;6.10;;
56435;SDS011;42335;44.872;20.658;2023-07-20T07:27:37;14.00;;;5.80;;
56435;SDS011;42335;44.872;20.658;2023-07-20T07:30:04;16.30;;;6.63;;
56435;SDS011;42335;44.872;20.658;2023-07-20T07:32:30;13.75;;;5.55;;
56435;SDS011;42335;44.872;20.658;2023-07-20T07:34:56;18.30;;;6.88;;
56435;SDS011;42335;44.872;20.658;2023-07-20T07:37:23;15.82;;;6.32;;
56435;SDS011;42335;44.872;20.658;2023-07-20T07:39:49;9.70;;;6.43;;
56435;SDS011;42335;44.872;20.658;2023-07-20T07:42:15;16.70;;;6.65;;
56435;SDS011;42335;44.872;20.658;2023-07-20T07:44:43;12.30;;;5.88;;
56435;SDS011;42335;44.872;20.658;2023-07-20T07:47:09;20.48;;;5.43;;
56435;SDS011;42335;44.872;20.658;2023-07-20T07:49:35;14.20;;;4.72;;
56435;SDS011;42335;44.872;20.658;2023-07-20T07:52:01;11.63;;;4.85;;
56435;SDS011;42335;44.872;20.658;2023-07-20T07:54:28;13.93;;;4.90;;
56435;SDS011;42335;44.872;20.658;2023-07-20T07:56:54;12.15;;;5.20;;
56435;SDS011;42335;44.872;20.658;2023-07-20T07:59:21;9.45;;;5.20;;
56435;SDS011;42335;44.872;20.658;2023-07-20T08:01:47;15.10;;;5.65;;
56435;SDS011;42335;44.872;20.658;2023-07-20T08:04:13;11.57;;;5.40;;
56435;SDS011;42335;44.872;20.658;2023-07-20T08:06:39;16.90;;;5.63;;
56435;SDS011;42335;44.872;20.658;2023-07-20T08:09:05;20.10;;;5.88;;
56435;SDS011;42335;44.872;20.658;2023-07-20T08:11:32;11.90;;;5.70;;
56435;SDS011;42335;44.872;20.658;2023-07-20T08:14:01;15.82;;;5.82;;
56435;SDS011;42335;44.872;20.658;2023-07-20T08:16:27;12.13;;;5.78;;
56435;SDS011;42335;44.872;20.658;2023-07-20T08:18:54;13.45;;;6.20;;
56435;SDS011;42335;44.872;20.658;2023-07-20T08:21:20;15.68;;;6.63;;
56435;SDS011;42335;44.872;20.658;2023-07-20T08:23:46;19.85;;;5.97;;
56435;SDS011;42335;44.872;20.658;2023-07-20T08:26:12;15.45;;;7.60;;
56435;SDS011;42335;44.872;20.658;2023-07-20T08:28:38;13.80;;;6.65;;
56435;SDS011;42335;44.872;20.658;2023-07-20T08:31:05;14.98;;;5.57;;
56435;SDS011;42335;44.872;20.658;2023-07-20T08:33:34;15.77;;;5.57;;
56435;SDS011;42335;44.872;20.658;2023-07-20T08:36:01;16.52;;;6.28;;
56435;SDS011;42335;44.872;20.658;2023-07-20T08:38:28;13.80;;;5.55;;
56435;SDS011;42335;44.872;20.658;2023-07-20T08:40:54;15.50;;;6.05;;
56435;SDS011;42335;44.872;20.658;2023-07-20T08:43:21;11.32;;;5.18;;
56435;SDS011;42335;44.872;20.658;2023-07-20T08:45:49;14.10;;;5.05;;
56435;SDS011;42335;44.872;20.658;2023-07-20T08:48:15;10.38;;;4.60;;
56435;SDS011;42335;44.872;20.658;2023-07-20T08:50:42;14.65;;;4.78;;
56435;SDS011;42335;44.872;20.658;2023-07-20T08:53:09;12.70;;;4.97;;
56435;SDS011;42335;44.872;20.658;2023-07-20T08:55:35;11.75;;;3.72;;
56435;SDS011;42335;44.872;20.658;2023-07-20T08:58:02;10.27;;;3.40;;
56435;SDS011;42335;44.872;20.658;2023-07-20T09:00:28;9.32;;;3.83;;
56435;SDS011;42335;44.872;20.658;2023-07-20T09:02:55;7.97;;;3.03;;
56435;SDS011;42335;44.872;20.658;2023-07-20T09:05:23;6.43;;;3.50;;
56435;SDS011;42335;44.872;20.658;2023-07-20T09:07:50;9.90;;;3.13;;
56435;SDS011;42335;44.872;20.658;2023-07-20T09:10:18;8.75;;;3.10;;
56435;SDS011;42335;44.872;20.658;2023-07-20T09:12:46;10.50;;;3.40;;
56435;SDS011;42335;44.872;20.658;2023-07-20T09:15:11;7.60;;;3.10;;
56435;SDS011;42335;44.872;20.658;2023-07-20T09:17:38;9.38;;;3.35;;
56435;SDS011;42335;44.872;20.658;2023-07-20T09:20:05;7.30;;;4.28;;
56435;SDS011;42335;44.872;20.658;2023-07-20T09:22:38;8.40;;;4.20;;
56435;SDS011;42335;44.872;20.658;2023-07-20T09:25:07;9.63;;;4.70;;
56435;SDS011;42335;44.872;20.658;2023-07-20T09:27:41;15.02;;;3.90;;
56435;SDS011;42335;44.872;20.658;2023-07-20T09:30:08;8.00;;;3.40;;
56435;SDS011;42335;44.872;20.658;2023-07-20T09:32:38;12.25;;;3.47;;
56435;SDS011;42335;44.872;20.658;2023-07-20T09:35:15;8.02;;;3.47;;
56435;SDS011;42335;44.872;20.658;2023-07-20T09:37:46;9.05;;;3.72;;
56435;SDS011;42335;44.872;20.658;2023-07-20T09:40:16;9.35;;;3.75;;
56435;SDS011;42335;44.872;20.658;2023-07-20T09:42:42;8.48;;;3.58;;
56435;SDS011;42335;44.872;20.658;2023-07-20T09:45:08;10.05;;;3.88;;
56435;SDS011;42335;44.872;20.658;2023-07-20T09:47:36;8.60;;;3.10;;
56435;SDS011;42335;44.872;20.658;2023-07-20T09:50:03;8.93;;;3.47;;
56435;SDS011;42335;44.872;20.658;2023-07-20T09:52:29;8.23;;;3.65;;
56435;SDS011;42335;44.872;20.658;2023-07-20T09:54:56;23.25;;;5.90;;
56435;SDS011;42335;44.872;20.658;2023-07-20T09:57:22;11.80;;;3.97;;
56435;SDS011;42335;44.872;20.658;2023-07-20T09:59:48;9.10;;;4.13;;
56435;SDS011;42335;44.872;20.658;2023-07-20T10:02:20;10.32;;;3.60;;
56435;SDS011;42335;44.872;20.658;2023-07-20T10:04:51;9.52;;;3.63;;
56435;SDS011;42335;44.872;20.658;2023-07-20T10:07:18;11.88;;;4.10;;
56435;SDS011;42335;44.872;20.658;2023-07-20T10:09:48;9.20;;;3.75;;
56435;SDS011;42335;44.872;20.658;2023-07-20T10:12:15;7.43;;;3.90;;
56435;SDS011;42335;44.872;20.658;2023-07-20T10:14:42;10.57;;;3.65;;
56435;SDS011;42335;44.872;20.658;2023-07-20T10:17:15;10.95;;;3.90;;
56435;SDS011;42335;44.872;20.658;2023-07-20T10:19:44;10.85;;;4.18;;
56435;SDS011;42335;44.872;20.658;2023-07-20T10:22:16;12.63;;;3.58;;
56435;SDS011;42335;44.872;20.658;2023-07-20T10:24:45;10.05;;;3.70;;
56435;SDS011;42335;44.872;20.658;2023-07-20T10:27:13;8.68;;;3.58;;
56435;SDS011;42335;44.872;20.658;2023-07-20T10:29:42;9.82;;;3.50;;
56435;SDS011;42335;44.872;20.658;2023-07-20T10:32:08;11.32;;;3.88;;
56435;SDS011;42335;44.872;20.658;2023-07-20T10:34:34;8.70;;;3.47;;
56435;SDS011;42335;44.872;20.658;2023-07-20T10:37:00;8.05;;;3.70;;
56435;SDS011;42335;44.872;20.658;2023-07-20T10:39:27;7.55;;;2.92;;
56435;SDS011;42335;44.872;20.658;2023-07-20T10:42:09;11.68;;;4.18;;
56435;SDS011;42335;44.872;20.658;2023-07-20T10:44:39;7.20;;;3.28;;
56435;SDS011;42335;44.872;20.658;2023-07-20T10:47:09;7.45;;;2.97;;
56435;SDS011;42335;44.872;20.658;2023-07-20T10:49:57;9.00;;;4.95;;
56435;SDS011;42335;44.872;20.658;2023-07-20T10:52:25;7.22;;;3.60;;
56435;SDS011;42335;44.872;20.658;2023-07-20T10:54:52;7.93;;;3.58;;
56435;SDS011;42335;44.872;20.658;2023-07-20T10:57:51;8.63;;;4.07;;
56435;SDS011;42335;44.872;20.658;2023-07-20T11:00:13;6.70;;;3.35;;
56435;SDS011;42335;44.872;20.658;2023-07-20T11:02:48;7.40;;;2.95;;
56435;SDS011;42335;44.872;20.658;2023-07-20T11:08:05;8.63;;;3.20;;
56435;SDS011;42335;44.872;20.658;2023-07-20T11:10:31;6.15;;;3.47;;
56435;SDS011;42335;44.872;20.658;2023-07-20T11:15:45;6.97;;;3.35;;
56435;SDS011;42335;44.872;20.658;2023-07-20T11:18:12;19.48;;;3.75;;
56435;SDS011;42335;44.872;20.658;2023-07-20T11:20:38;7.50;;;3.65;;
56435;SDS011;42335;44.872;20.658;2023-07-20T11:23:04;7.05;;;3.20;;
56435;SDS011;42335;44.872;20.658;2023-07-20T11:25:38;10.00;;;3.92;;
56435;SDS011;42335;44.872;20.658;2023-07-20T11:28:06;9.60;;;3.70;;
56435;SDS011;42335;44.872;20.658;2023-07-20T11:30:35;11.98;;;3.67;;
56435;SDS011;42335;44.872;20.658;2023-07-20T11:33:01;7.65;;;3.35;;
56435;SDS011;42335;44.872;20.658;2023-07-20T11:35:26;8.55;;;3.63;;
56435;SDS011;42335;44.872;20.658;2023-07-20T11:37:52;10.95;;;3.35;;
56435;SDS011;42335;44.872;20.658;2023-07-20T11:40:18;7.18;;;3.40;;
56435;SDS011;42335;44.872;20.658;2023-07-20T11:42:43;8.80;;;3.75;;
56435;SDS011;42335;44.872;20.658;2023-07-20T11:45:11;11.05;;;3.72;;
56435;SDS011;42335;44.872;20.658;2023-07-20T11:47:40;6.25;;;3.63;;
56435;SDS011;42335;44.872;20.658;2023-07-20T11:50:07;8.13;;;3.35;;
56435;SDS011;42335;44.872;20.658;2023-07-20T11:52:33;6.20;;;3.53;;
56435;SDS011;42335;44.872;20.658;2023-07-20T11:54:59;9.13;;;4.30;;
56435;SDS011;42335;44.872;20.658;2023-07-20T11:57:25;11.65;;;4.15;;
56435;SDS011;42335;44.872;20.658;2023-07-20T11:59:58;6.35;;;2.92;;
56435;SDS011;42335;44.872;20.658;2023-07-20T12:02:29;6.97;;;2.92;;
56435;SDS011;42335;44.872;20.658;2023-07-20T12:04:56;7.57;;;3.83;;
56435;SDS011;42335;44.872;20.658;2023-07-20T12:07:22;6.38;;;3.10;;
56435;SDS011;42335;44.872;20.658;2023-07-20T12:10:06;6.00;;;2.97;;
56435;SDS011;42335;44.872;20.658;2023-07-20T12:12:32;6.15;;;3.28;;
56435;SDS011;42335;44.872;20.658;2023-07-20T12:15:14;5.60;;;3.33;;
56435;SDS011;42335;44.872;20.658;2023-07-20T12:17:53;7.45;;;3.22;;
56435;SDS011;42335;44.872;20.658;2023-07-20T12:20:33;7.15;;;2.80;;
56435;SDS011;42335;44.872;20.658;2023-07-20T12:23:05;9.75;;;3.67;;
56435;SDS011;42335;44.872;20.658;2023-07-20T12:25:46;6.95;;;3.20;;
56435;SDS011;42335;44.872;20.658;2023-07-20T12:28:16;8.32;;;3.47;;
56435;SDS011;42335;44.872;20.658;2023-07-20T12:30:43;11.40;;;4.18;;
56435;SDS011;42335;44.872;20.658;2023-07-20T12:33:10;6.35;;;3.92;;
56435;SDS011;42335;44.872;20.658;2023-07-20T12:35:39;6.05;;;3.20;;
56435;SDS011;42335;44.872;20.658;2023-07-20T12:38:05;7.05;;;3.45;;
56435;SDS011;42335;44.872;20.658;2023-07-20T12:40:31;7.57;;;3.05;;
56435;SDS011;42335;44.872;20.658;2023-07-20T12:42:57;10.93;;;3.33;;
56435;SDS011;42335;44.872;20.658;2023-07-20T12:45:23;6.53;;;3.58;;
56435;SDS011;42335;44.872;20.658;2023-07-20T12:47:49;7.65;;;2.97;;
56435;SDS011;42335;44.872;20.658;2023-07-20T12:50:16;6.10;;;3.45;;
56435;SDS011;42335;44.872;20.658;2023-07-20T12:52:42;8.48;;;3.85;;
56435;SDS011;42335;44.872;20.658;2023-07-20T12:55:08;12.75;;;3.40;;
56435;SDS011;42335;44.872;20.658;2023-07-20T12:57:35;10.13;;;3.40;;
56435;SDS011;42335;44.872;20.658;2023-07-20T13:00:02;5.45;;;2.65;;
56435;SDS011;42335;44.872;20.658;2023-07-20T13:02:29;6.80;;;3.40;;
56435;SDS011;42335;44.872;20.658;2023-07-20T13:04:56;9.57;;;3.47;;
56435;SDS011;42335;44.872;20.658;2023-07-20T13:07:35;9.27;;;3.67;;
56435;SDS011;42335;44.872;20.658;2023-07-20T13:10:01;10.75;;;4.18;;
56435;SDS011;42335;44.872;20.658;2023-07-20T13:12:29;8.93;;;3.50;;
56435;SDS011;42335;44.872;20.658;2023-07-20T13:14:55;6.45;;;3.50;;
56435;SDS011;42335;44.872;20.658;2023-07-20T13:17:22;6.10;;;3.35;;
56435;SDS011;42335;44.872;20.658;2023-07-20T13:19:48;7.65;;;3.42;;
56435;SDS011;42335;44.872;20.658;2023-07-20T13:22:13;6.00;;;3.60;;
56435;SDS011;42335;44.872;20.658;2023-07-20T13:24:40;12.63;;;3.33;;
56435;SDS011;42335;44.872;20.658;2023-07-20T13:27:06;12.98;;;3.50;;
56435;SDS011;42335;44.872;20.658;2023-07-20T13:29:32;10.70;;;3.47;;
56435;SDS011;42335;44.872;20.658;2023-07-20T13:31:58;6.93;;;3.42;;
56435;SDS011;42335;44.872;20.658;2023-07-20T13:34:25;7.57;;;3.35;;
56435;SDS011;42335;44.872;20.658;2023-07-20T13:36:51;6.38;;;3.40;;
56435;SDS011;42335;44.872;20.658;2023-07-20T13:39:16;8.10;;;3.42;;
56435;SDS011;42335;44.872;20.658;2023-07-20T13:41:42;10.93;;;3.58;;
56435;SDS011;42335;44.872;20.658;2023-07-20T13:44:08;13.43;;;3.08;;
56435;SDS011;42335;44.872;20.658;2023-07-20T13:46:34;13.60;;;3.22;;
56435;SDS011;42335;44.872;20.658;2023-07-20T13:49:00;5.68;;;2.92;;
56435;SDS011;42335;44.872;20.658;2023-07-20T13:51:26;11.60;;;2.65;;
56435;SDS011;42335;44.872;20.658;2023-07-20T13:53:51;5.55;;;3.60;;
56435;SDS011;42335;44.872;20.658;2023-07-20T13:56:17;8.38;;;3.20;;
56435;SDS011;42335;44.872;20.658;2023-07-20T13:58:43;13.15;;;3.40;;
56435;SDS011;42335;44.872;20.658;2023-07-20T14:01:09;12.48;;;3.80;;
56435;SDS011;42335;44.872;20.658;2023-07-20T14:03:35;12.25;;;4.53;;
56435;SDS011;42335;44.872;20.658;2023-07-20T14:06:01;7.28;;;2.97;;
56435;SDS011;42335;44.872;20.658;2023-07-20T14:08:27;9.32;;;3.75;;
56435;SDS011;42335;44.872;20.658;2023-07-20T14:10:55;6.63;;;3.05;;
56435;SDS011;42335;44.872;20.658;2023-07-20T14:13:20;7.35;;;3.30;;
56435;SDS011;42335;44.872;20.658;2023-07-20T14:15:46;6.13;;;3.50;;
56435;SDS011;42335;44.872;20.658;2023-07-20T14:18:12;6.35;;;3.47;;
56435;SDS011;42335;44.872;20.658;2023-07-20T14:20:38;6.95;;;3.10;;
56435;SDS011;42335;44.872;20.658;2023-07-20T14:23:03;6.90;;;3.35;;
56435;SDS011;42335;44.872;20.658;2023-07-20T14:25:29;6.93;;;3.55;;
56435;SDS011;42335;44.872;20.658;2023-07-20T14:27:55;4.90;;;3.28;;
56435;SDS011;42335;44.872;20.658;2023-07-20T14:30:20;5.40;;;3.10;;
56435;SDS011;42335;44.872;20.658;2023-07-20T14:32:46;6.70;;;3.75;;
56435;SDS011;42335;44.872;20.658;2023-07-20T14:35:11;8.35;;;3.67;;
56435;SDS011;42335;44.872;20.658;2023-07-20T14:37:37;8.55;;;2.92;;